sensor_id;sensor_type;location;lat;lon;timestamp;pressure;altitude;pressure_sealevel;temperature;humidity
32638;BME280;19045;52.268;10.506;2023-01-29T00:00:31;101872.00;;;-1.15;94.94
32638;BME280;19045;52.268;10.506;2023-01-29T00:02:59;101876.16;;;-1.13;94.21
32638;BME280;19045;52.268;10.506;2023-01-29T00:05:25;101868.81;;;-1.19;94.79
32638;BME280;19045;52.268;10.506;2023-01-29T00:07:52;101860.63;;;-1.16;94.95
32638;BME280;19045;52.268;10.506;2023-01-29T00:10:19;101860.91;;;-1.19;94.77
32638;BME280;19045;52.268;10.506;2023-01-29T00:12:45;101859.28;;;-1.20;94.66
32638;BME280;19045;52.268;10.506;2023-01-29T00:15:12;101858.88;;;-1.25;95.07
32638;BME280;19045;52.268;10.506;2023-01-29T00:17:38;101851.50;;;-1.21;94.95
32638;BME280;19045;52.268;10.506;2023-01-29T00:20:08;101851.50;;;-1.21;94.84
32638;BME280;19045;52.268;10.506;2023-01-29T00:22:34;101851.91;;;-1.16;95.03
32638;BME280;19045;52.268;10.506;2023-01-29T00:25:01;101841.63;;;-1.19;95.22
32638;BME280;19045;52.268;10.506;2023-01-29T00:27:28;101853.00;;;-1.19;95.67
32638;BME280;19045;52.268;10.506;2023-01-29T00:29:55;101857.19;;;-1.16;95.14
32638;BME280;19045;52.268;10.506;2023-01-29T00:32:37;101849.78;;;-1.13;95.16
32638;BME280;19045;52.268;10.506;2023-01-29T00:35:04;101841.44;;;-1.08;95.02
32638;BME280;19045;52.268;10.506;2023-01-29T00:37:33;101852.81;;;-1.08;94.61
32638;BME280;19045;52.268;10.506;2023-01-29T00:40:00;101844.91;;;-1.08;94.69
32638;BME280;19045;52.268;10.506;2023-01-29T00:42:27;101841.00;;;-1.03;94.65
32638;BME280;19045;52.268;10.506;2023-01-29T00:45:11;101831.72;;;-1.08;95.42
32638;BME280;19045;52.268;10.506;2023-01-29T00:47:38;101835.22;;;-1.07;95.22
32638;BME280;19045;52.268;10.506;2023-01-29T00:50:06;101834.66;;;-1.11;95.21
32638;BME280;19045;52.268;10.506;2023-01-29T00:52:34;101824.41;;;-1.14;95.39
32638;BME280;19045;52.268;10.506;2023-01-29T00:55:03;101820.69;;;-1.21;95.71
32638;BME280;19045;52.268;10.506;2023-01-29T00:57:31;101823.22;;;-1.29;96.09
32638;BME280;19045;52.268;10.506;2023-01-29T00:59:58;101822.56;;;-1.31;96.29
32638;BME280;19045;52.268;10.506;2023-01-29T01:02:25;101830.47;;;-1.31;96.32
32638;BME280;19045;52.268;10.506;2023-01-29T01:05:11;101831.88;;;-1.36;96.88
32638;BME280;19045;52.268;10.506;2023-01-29T01:07:43;101827.41;;;-1.36;96.42
32638;BME280;19045;52.268;10.506;2023-01-29T01:10:13;101828.53;;;-1.38;96.99
32638;BME280;19045;52.268;10.506;2023-01-29T01:12:46;101826.91;;;-1.39;96.63
32638;BME280;19045;52.268;10.506;2023-01-29T01:15:12;101831.34;;;-1.40;96.85
32638;BME280;19045;52.268;10.506;2023-01-29T01:17:39;101840.47;;;-1.34;96.48
32638;BME280;19045;52.268;10.506;2023-01-29T01:20:07;101835.06;;;-1.33;96.14
32638;BME280;19045;52.268;10.506;2023-01-29T01:22:34;101843.94;;;-1.34;95.99
32638;BME280;19045;52.268;10.506;2023-01-29T01:25:02;101830.75;;;-1.34;96.10
32638;BME280;19045;52.268;10.506;2023-01-29T01:27:29;101828.78;;;-1.32;95.92
32638;BME280;19045;52.268;10.506;2023-01-29T01:29:56;101821.59;;;-1.30;95.71
32638;BME280;19045;52.268;10.506;2023-01-29T01:32:22;101801.59;;;-1.32;96.14
32638;BME280;19045;52.268;10.506;2023-01-29T01:34:51;101792.88;;;-1.33;96.01
32638;BME280;19045;52.268;10.506;2023-01-29T01:37:18;101791.06;;;-1.32;95.85
32638;BME280;19045;52.268;10.506;2023-01-29T01:39:44;101789.97;;;-1.30;95.97
32638;BME280;19045;52.268;10.506;2023-01-29T01:42:14;101794.41;;;-1.30;95.79
32638;BME280;19045;52.268;10.506;2023-01-29T01:44:52;101795.53;;;-1.33;96.17
32638;BME280;19045;52.268;10.506;2023-01-29T01:47:25;101788.28;;;-1.31;95.96
32638;BME280;19045;52.268;10.506;2023-01-29T01:49:53;101797.75;;;-1.38;96.03
32638;BME280;19045;52.268;10.506;2023-01-29T01:52:20;101789.19;;;-1.40;96.18
32638;BME280;19045;52.268;10.506;2023-01-29T01:54:47;101790.81;;;-1.39;96.68
32638;BME280;19045;52.268;10.506;2023-01-29T01:57:18;101787.38;;;-1.39;96.56
32638;BME280;19045;52.268;10.506;2023-01-29T01:59:53;101783.59;;;-1.37;96.24
32638;BME280;19045;52.268;10.506;2023-01-29T02:02:21;101784.44;;;-1.36;96.48
32638;BME280;19045;52.268;10.506;2023-01-29T02:05:07;101776.66;;;-1.38;96.52
32638;BME280;19045;52.268;10.506;2023-01-29T02:07:53;101783.56;;;-1.27;96.20
32638;BME280;19045;52.268;10.506;2023-01-29T02:10:41;101791.31;;;-1.26;96.33
32638;BME280;19045;52.268;10.506;2023-01-29T02:13:09;101799.63;;;-1.21;95.93
32638;BME280;19045;52.268;10.506;2023-01-29T02:15:37;101797.50;;;-1.17;96.01
32638;BME280;19045;52.268;10.506;2023-01-29T02:18:06;101799.03;;;-1.15;95.43
32638;BME280;19045;52.268;10.506;2023-01-29T02:20:33;101804.28;;;-1.15;95.89
32638;BME280;19045;52.268;10.506;2023-01-29T02:23:28;101804.97;;;-1.13;95.76
32638;BME280;19045;52.268;10.506;2023-01-29T02:26:23;101800.16;;;-1.17;95.45
32638;BME280;19045;52.268;10.506;2023-01-29T02:29:01;101801.81;;;-1.16;95.48
32638;BME280;19045;52.268;10.506;2023-01-29T02:31:51;101796.38;;;-1.15;96.31
32638;BME280;19045;52.268;10.506;2023-01-29T02:34:28;101796.50;;;-1.07;95.32
32638;BME280;19045;52.268;10.506;2023-01-29T02:37:12;101806.50;;;-1.10;95.33
32638;BME280;19045;52.268;10.506;2023-01-29T02:39:45;101800.94;;;-1.07;95.52
32638;BME280;19045;52.268;10.506;2023-01-29T02:42:22;101805.38;;;-1.08;95.65
32638;BME280;19045;52.268;10.506;2023-01-29T02:44:55;101795.56;;;-1.15;96.06
32638;BME280;19045;52.268;10.506;2023-01-29T02:47:29;101802.63;;;-1.16;96.10
32638;BME280;19045;52.268;10.506;2023-01-29T02:50:05;101815.81;;;-1.16;96.44
32638;BME280;19045;52.268;10.506;2023-01-29T02:52:39;101818.16;;;-1.13;96.67
32638;BME280;19045;52.268;10.506;2023-01-29T02:55:16;101821.47;;;-1.11;96.75
32638;BME280;19045;52.268;10.506;2023-01-29T02:57:47;101813.28;;;-1.08;96.62
32638;BME280;19045;52.268;10.506;2023-01-29T03:00:20;101822.84;;;-1.07;96.78
32638;BME280;19045;52.268;10.506;2023-01-29T03:02:51;101831.13;;;-1.01;96.25
32638;BME280;19045;52.268;10.506;2023-01-29T03:05:23;101819.75;;;-1.02;96.23
32638;BME280;19045;52.268;10.506;2023-01-29T03:07:54;101815.31;;;-1.01;96.35
32638;BME280;19045;52.268;10.506;2023-01-29T03:10:25;101819.09;;;-1.04;96.16
32638;BME280;19045;52.268;10.506;2023-01-29T03:12:56;101819.09;;;-1.04;96.01
32638;BME280;19045;52.268;10.506;2023-01-29T03:15:28;101819.91;;;-1.03;96.12
32638;BME280;19045;52.268;10.506;2023-01-29T03:18:06;101815.47;;;-1.03;96.41
32638;BME280;19045;52.268;10.506;2023-01-29T03:20:38;101805.97;;;-0.96;95.70
32638;BME280;19045;52.268;10.506;2023-01-29T03:23:16;101808.78;;;-0.97;95.62
32638;BME280;19045;52.268;10.506;2023-01-29T03:26:03;101805.31;;;-0.98;95.66
32638;BME280;19045;52.268;10.506;2023-01-29T03:28:49;101805.84;;;-0.94;95.34
32638;BME280;19045;52.268;10.506;2023-01-29T03:31:35;101807.09;;;-0.98;95.36
32638;BME280;19045;52.268;10.506;2023-01-29T03:34:22;101804.47;;;-0.98;95.40
32638;BME280;19045;52.268;10.506;2023-01-29T03:36:54;101789.25;;;-1.05;95.58
32638;BME280;19045;52.268;10.506;2023-01-29T03:39:24;101789.56;;;-1.08;95.54
32638;BME280;19045;52.268;10.506;2023-01-29T03:41:54;101794.09;;;-1.00;96.13
32638;BME280;19045;52.268;10.506;2023-01-29T03:44:30;101797.41;;;-0.98;96.67
32638;BME280;19045;52.268;10.506;2023-01-29T03:47:08;101799.19;;;-0.98;97.36
32638;BME280;19045;52.268;10.506;2023-01-29T03:49:45;101802.97;;;-1.01;97.76
32638;BME280;19045;52.268;10.506;2023-01-29T03:52:20;101787.28;;;-1.02;97.41
32638;BME280;19045;52.268;10.506;2023-01-29T03:54:57;101786.19;;;-1.00;97.72
32638;BME280;19045;52.268;10.506;2023-01-29T03:57:30;101778.41;;;-1.01;97.78
32638;BME280;19045;52.268;10.506;2023-01-29T04:00:04;101777.97;;;-0.97;96.90
32638;BME280;19045;52.268;10.506;2023-01-29T04:02:42;101777.81;;;-0.95;97.29
32638;BME280;19045;52.268;10.506;2023-01-29T04:05:13;101768.25;;;-0.96;97.32
32638;BME280;19045;52.268;10.506;2023-01-29T04:07:43;101763.78;;;-0.96;97.64
32638;BME280;19045;52.268;10.506;2023-01-29T04:10:13;101751.72;;;-0.98;97.43
32638;BME280;19045;52.268;10.506;2023-01-29T04:12:45;101761.16;;;-0.96;97.59
32638;BME280;19045;52.268;10.506;2023-01-29T04:15:14;101757.53;;;-0.95;97.69
32638;BME280;19045;52.268;10.506;2023-01-29T04:17:47;101758.38;;;-0.94;97.50
32638;BME280;19045;52.268;10.506;2023-01-29T04:20:15;101752.88;;;-1.01;97.75
32638;BME280;19045;52.268;10.506;2023-01-29T04:22:45;101745.63;;;-0.99;97.94
32638;BME280;19045;52.268;10.506;2023-01-29T04:25:14;101741.19;;;-0.98;98.03
32638;BME280;19045;52.268;10.506;2023-01-29T04:27:45;101732.59;;;-1.00;97.49
32638;BME280;19045;52.268;10.506;2023-01-29T04:30:25;101729.56;;;-1.06;97.44
32638;BME280;19045;52.268;10.506;2023-01-29T04:33:03;101726.47;;;-1.19;97.77
32638;BME280;19045;52.268;10.506;2023-01-29T04:35:41;101726.47;;;-1.19;98.26
32638;BME280;19045;52.268;10.506;2023-01-29T04:38:20;101718.19;;;-1.24;98.02
32638;BME280;19045;52.268;10.506;2023-01-29T04:40:56;101720.66;;;-1.22;98.27
32638;BME280;19045;52.268;10.506;2023-01-29T04:43:42;101709.16;;;-1.21;98.32
32638;BME280;19045;52.268;10.506;2023-01-29T04:46:13;101703.81;;;-1.29;98.40
32638;BME280;19045;52.268;10.506;2023-01-29T04:48:59;101707.25;;;-1.29;99.24
32638;BME280;19045;52.268;10.506;2023-01-29T04:51:34;101697.31;;;-1.35;98.56
32638;BME280;19045;52.268;10.506;2023-01-29T04:54:08;101698.75;;;-1.40;98.99
32638;BME280;19045;52.268;10.506;2023-01-29T04:56:40;101688.75;;;-1.37;99.17
32638;BME280;19045;52.268;10.506;2023-01-29T04:59:14;101683.31;;;-1.35;99.40
32638;BME280;19045;52.268;10.506;2023-01-29T05:01:43;101676.53;;;-1.38;99.60
32638;BME280;19045;52.268;10.506;2023-01-29T05:04:13;101673.66;;;-1.44;99.60
32638;BME280;19045;52.268;10.506;2023-01-29T05:06:45;101671.47;;;-1.49;100.00
32638;BME280;19045;52.268;10.506;2023-01-29T05:09:13;101676.16;;;-1.43;99.84
32638;BME280;19045;52.268;10.506;2023-01-29T05:11:42;101676.16;;;-1.43;99.87
32638;BME280;19045;52.268;10.506;2023-01-29T05:14:12;101668.41;;;-1.44;99.84
32638;BME280;19045;52.268;10.506;2023-01-29T05:16:42;101672.69;;;-1.43;99.57
32638;BME280;19045;52.268;10.506;2023-01-29T05:19:13;101668.41;;;-1.44;99.45
32638;BME280;19045;52.268;10.506;2023-01-29T05:21:42;101668.56;;;-1.46;99.53
32638;BME280;19045;52.268;10.506;2023-01-29T05:24:12;101665.22;;;-1.48;99.95
32638;BME280;19045;52.268;10.506;2023-01-29T05:26:41;101670.38;;;-1.46;99.80
32638;BME280;19045;52.268;10.506;2023-01-29T05:29:26;101673.13;;;-1.48;99.43
32638;BME280;19045;52.268;10.506;2023-01-29T05:31:53;101669.53;;;-1.47;99.71
32638;BME280;19045;52.268;10.506;2023-01-29T05:34:21;101666.59;;;-1.44;99.72
32638;BME280;19045;52.268;10.506;2023-01-29T05:36:48;101668.81;;;-1.49;99.78
32638;BME280;19045;52.268;10.506;2023-01-29T05:39:14;101676.28;;;-1.44;99.59
32638;BME280;19045;52.268;10.506;2023-01-29T05:41:41;101681.56;;;-1.44;99.73
32638;BME280;19045;52.268;10.506;2023-01-29T05:44:08;101678.09;;;-1.45;100.00
32638;BME280;19045;52.268;10.506;2023-01-29T05:46:35;101681.97;;;-1.39;99.79
32638;BME280;19045;52.268;10.506;2023-01-29T05:49:02;101681.13;;;-1.40;99.62
32638;BME280;19045;52.268;10.506;2023-01-29T05:51:30;101691.38;;;-1.37;99.66
32638;BME280;19045;52.268;10.506;2023-01-29T05:53:57;101688.56;;;-1.35;99.60
32638;BME280;19045;52.268;10.506;2023-01-29T05:56:23;101689.09;;;-1.32;99.65
32638;BME280;19045;52.268;10.506;2023-01-29T05:58:50;101689.28;;;-1.33;99.66
32638;BME280;19045;52.268;10.506;2023-01-29T06:01:18;101695.44;;;-1.25;99.82
32638;BME280;19045;52.268;10.506;2023-01-29T06:03:45;101701.84;;;-1.27;99.40
32638;BME280;19045;52.268;10.506;2023-01-29T06:06:13;101705.03;;;-1.24;99.58
32638;BME280;19045;52.268;10.506;2023-01-29T06:08:41;101708.03;;;-1.19;99.28
32638;BME280;19045;52.268;10.506;2023-01-29T06:11:10;101712.94;;;-1.24;99.32
32638;BME280;19045;52.268;10.506;2023-01-29T06:13:37;101710.66;;;-1.19;99.26
32638;BME280;19045;52.268;10.506;2023-01-29T06:16:04;101724.38;;;-1.15;98.96
32638;BME280;19045;52.268;10.506;2023-01-29T06:18:31;101717.69;;;-1.10;98.81
32638;BME280;19045;52.268;10.506;2023-01-29T06:20:59;101716.84;;;-1.10;98.17
32638;BME280;19045;52.268;10.506;2023-01-29T06:23:26;101728.91;;;-1.08;98.08
32638;BME280;19045;52.268;10.506;2023-01-29T06:25:58;101730.63;;;-0.98;98.07
32638;BME280;19045;52.268;10.506;2023-01-29T06:28:24;101727.16;;;-0.99;97.60
32638;BME280;19045;52.268;10.506;2023-01-29T06:30:51;101718.16;;;-0.96;97.40
32638;BME280;19045;52.268;10.506;2023-01-29T06:33:18;101715.81;;;-0.99;97.27
32638;BME280;19045;52.268;10.506;2023-01-29T06:35:44;101713.97;;;-0.99;97.16
32638;BME280;19045;52.268;10.506;2023-01-29T06:38:11;101708.28;;;-0.94;97.38
32638;BME280;19045;52.268;10.506;2023-01-29T06:40:38;101701.94;;;-1.01;97.01
32638;BME280;19045;52.268;10.506;2023-01-29T06:43:06;101697.19;;;-0.98;97.30
32638;BME280;19045;52.268;10.506;2023-01-29T06:45:32;101693.41;;;-0.95;97.03
32638;BME280;19045;52.268;10.506;2023-01-29T06:47:59;101693.88;;;-1.00;97.26
32638;BME280;19045;52.268;10.506;2023-01-29T06:50:26;101700.50;;;-0.96;97.18
32638;BME280;19045;52.268;10.506;2023-01-29T06:52:52;101692.16;;;-0.91;97.03
32638;BME280;19045;52.268;10.506;2023-01-29T06:55:19;101715.03;;;-0.92;96.42
32638;BME280;19045;52.268;10.506;2023-01-29T06:57:45;101721.59;;;-0.96;96.62
32638;BME280;19045;52.268;10.506;2023-01-29T07:00:14;101705.31;;;-0.91;96.54
32638;BME280;19045;52.268;10.506;2023-01-29T07:02:41;101708.63;;;-0.89;96.09
32638;BME280;19045;52.268;10.506;2023-01-29T07:05:08;101706.38;;;-0.84;96.00
32638;BME280;19045;52.268;10.506;2023-01-29T07:07:35;101704.34;;;-0.90;96.05
32638;BME280;19045;52.268;10.506;2023-01-29T07:10:02;101706.69;;;-0.87;96.09
32638;BME280;19045;52.268;10.506;2023-01-29T07:12:30;101713.47;;;-0.85;95.72
32638;BME280;19045;52.268;10.506;2023-01-29T07:14:58;101716.41;;;-0.88;95.19
32638;BME280;19045;52.268;10.506;2023-01-29T07:17:26;101719.56;;;-0.84;95.30
32638;BME280;19045;52.268;10.506;2023-01-29T07:19:53;101728.31;;;-0.84;95.24
32638;BME280;19045;52.268;10.506;2023-01-29T07:22:19;101737.19;;;-0.85;95.40
32638;BME280;19045;52.268;10.506;2023-01-29T07:24:46;101755.31;;;-0.90;95.80
32638;BME280;19045;52.268;10.506;2023-01-29T07:27:13;101745.94;;;-0.84;95.89
32638;BME280;19045;52.268;10.506;2023-01-29T07:29:39;101741.50;;;-0.84;95.83
32638;BME280;19045;52.268;10.506;2023-01-29T07:32:06;101733.06;;;-0.87;95.93
32638;BME280;19045;52.268;10.506;2023-01-29T07:34:34;101724.69;;;-0.83;95.76
32638;BME280;19045;52.268;10.506;2023-01-29T07:37:01;101729.50;;;-0.78;95.58
32638;BME280;19045;52.268;10.506;2023-01-29T07:39:28;101724.75;;;-0.75;95.74
32638;BME280;19045;52.268;10.506;2023-01-29T07:41:54;101719.28;;;-0.81;95.50
32638;BME280;19045;52.268;10.506;2023-01-29T07:44:21;101708.59;;;-0.80;95.76
32638;BME280;19045;52.268;10.506;2023-01-29T07:46:47;101704.84;;;-0.69;95.58
32638;BME280;19045;52.268;10.506;2023-01-29T07:49:14;101714.28;;;-0.67;95.29
32638;BME280;19045;52.268;10.506;2023-01-29T07:51:44;101707.50;;;-0.69;94.88
32638;BME280;19045;52.268;10.506;2023-01-29T07:54:13;101703.00;;;-0.77;94.87
32638;BME280;19045;52.268;10.506;2023-01-29T07:56:57;101706.31;;;-0.75;95.15
32638;BME280;19045;52.268;10.506;2023-01-29T07:59:24;101698.25;;;-0.73;94.96
32638;BME280;19045;52.268;10.506;2023-01-29T08:01:51;101686.06;;;-0.66;94.90
32638;BME280;19045;52.268;10.506;2023-01-29T08:04:17;101672.75;;;-0.65;94.44
32638;BME280;19045;52.268;10.506;2023-01-29T08:06:46;101673.88;;;-0.67;94.22
32638;BME280;19045;52.268;10.506;2023-01-29T08:09:12;101670.94;;;-0.64;93.85
32638;BME280;19045;52.268;10.506;2023-01-29T08:11:39;101671.38;;;-0.69;94.29
32638;BME280;19045;52.268;10.506;2023-01-29T08:14:05;101672.13;;;-0.59;94.52
32638;BME280;19045;52.268;10.506;2023-01-29T08:16:33;101657.78;;;-0.56;93.86
32638;BME280;19045;52.268;10.506;2023-01-29T08:19:00;101665.50;;;-0.63;94.75
32638;BME280;19045;52.268;10.506;2023-01-29T08:21:27;101669.34;;;-0.57;94.57
32638;BME280;19045;52.268;10.506;2023-01-29T08:23:57;101675.91;;;-0.61;94.33
32638;BME280;19045;52.268;10.506;2023-01-29T08:26:24;101669.34;;;-0.57;94.70
32638;BME280;19045;52.268;10.506;2023-01-29T08:28:51;101663.59;;;-0.53;94.59
32638;BME280;19045;52.268;10.506;2023-01-29T08:31:18;101672.84;;;-0.48;94.22
32638;BME280;19045;52.268;10.506;2023-01-29T08:33:45;101670.06;;;-0.47;94.73
32638;BME280;19045;52.268;10.506;2023-01-29T08:36:12;101670.06;;;-0.47;94.84
32638;BME280;19045;52.268;10.506;2023-01-29T08:38:38;101668.63;;;-0.41;94.46
32638;BME280;19045;52.268;10.506;2023-01-29T08:41:07;101669.44;;;-0.41;94.64
32638;BME280;19045;52.268;10.506;2023-01-29T08:43:34;101676.75;;;-0.35;94.41
32638;BME280;19045;52.268;10.506;2023-01-29T08:46:02;101666.44;;;-0.46;94.76
32638;BME280;19045;52.268;10.506;2023-01-29T08:48:29;101673.56;;;-0.46;94.92
32638;BME280;19045;52.268;10.506;2023-01-29T08:50:56;101669.13;;;-0.38;94.74
32638;BME280;19045;52.268;10.506;2023-01-29T08:53:23;101674.22;;;-0.44;94.86
32638;BME280;19045;52.268;10.506;2023-01-29T08:55:50;101674.34;;;-0.46;95.34
32638;BME280;19045;52.268;10.506;2023-01-29T08:58:18;101682.97;;;-0.44;96.16
32638;BME280;19045;52.268;10.506;2023-01-29T09:00:45;101677.38;;;-0.41;96.10
32638;BME280;19045;52.268;10.506;2023-01-29T09:03:14;101665.97;;;-0.41;96.30
32638;BME280;19045;52.268;10.506;2023-01-29T09:05:41;101657.28;;;-0.34;96.05
32638;BME280;19045;52.268;10.506;2023-01-29T09:08:08;101658.59;;;-0.38;95.96
32638;BME280;19045;52.268;10.506;2023-01-29T09:10:35;101652.66;;;-0.40;95.98
32638;BME280;19045;52.268;10.506;2023-01-29T09:13:02;101638.41;;;-0.47;96.79
32638;BME280;19045;52.268;10.506;2023-01-29T09:15:30;101647.94;;;-0.54;97.60
32638;BME280;19045;52.268;10.506;2023-01-29T09:17:56;101642.34;;;-0.51;98.05
32638;BME280;19045;52.268;10.506;2023-01-29T09:20:23;101642.16;;;-0.49;98.33
32638;BME280;19045;52.268;10.506;2023-01-29T09:22:49;101635.06;;;-0.49;98.67
32638;BME280;19045;52.268;10.506;2023-01-29T09:25:18;101620.78;;;-0.46;98.53
32638;BME280;19045;52.268;10.506;2023-01-29T09:27:44;101613.06;;;-0.40;98.45
32638;BME280;19045;52.268;10.506;2023-01-29T09:30:11;101616.97;;;-0.44;98.78
32638;BME280;19045;52.268;10.506;2023-01-29T09:32:39;101622.09;;;-0.42;98.71
32638;BME280;19045;52.268;10.506;2023-01-29T09:35:07;101618.94;;;-0.46;98.90
32638;BME280;19045;52.268;10.506;2023-01-29T09:37:34;101626.41;;;-0.41;98.64
32638;BME280;19045;52.268;10.506;2023-01-29T09:40:01;101610.13;;;-0.29;98.37
32638;BME280;19045;52.268;10.506;2023-01-29T09:42:30;101614.69;;;-0.39;98.75
32638;BME280;19045;52.268;10.506;2023-01-29T09:45:04;101611.91;;;-0.37;98.92
32638;BME280;19045;52.268;10.506;2023-01-29T09:47:34;101615.06;;;-0.34;98.87
32638;BME280;19045;52.268;10.506;2023-01-29T09:50:06;101604.69;;;-0.27;98.45
32638;BME280;19045;52.268;10.506;2023-01-29T09:52:33;101611.31;;;-0.23;98.11
32638;BME280;19045;52.268;10.506;2023-01-29T09:55:04;101609.34;;;-0.21;98.05
32638;BME280;19045;52.268;10.506;2023-01-29T09:57:38;101591.13;;;-0.32;98.08
32638;BME280;19045;52.268;10.506;2023-01-29T10:00:13;101598.91;;;-0.31;98.12
32638;BME280;19045;52.268;10.506;2023-01-29T10:02:53;101612.63;;;-0.27;98.34
32638;BME280;19045;52.268;10.506;2023-01-29T10:05:31;101611.03;;;-0.12;97.64
32638;BME280;19045;52.268;10.506;2023-01-29T10:08:18;101609.56;;;-0.07;97.02
32638;BME280;19045;52.268;10.506;2023-01-29T10:10:55;101612.06;;;-0.05;96.92
32638;BME280;19045;52.268;10.506;2023-01-29T10:13:28;101604.00;;;0.05;96.73
32638;BME280;19045;52.268;10.506;2023-01-29T10:16:08;101598.88;;;0.03;96.46
32638;BME280;19045;52.268;10.506;2023-01-29T10:19:03;101579.75;;;0.17;96.49
32638;BME280;19045;52.268;10.506;2023-01-29T10:22:03;101582.59;;;0.16;95.38
32638;BME280;19045;52.268;10.506;2023-01-29T10:24:39;101582.22;;;0.11;96.26
32638;BME280;19045;52.268;10.506;2023-01-29T10:27:17;101587.19;;;0.14;95.75
32638;BME280;19045;52.268;10.506;2023-01-29T10:29:46;101590.84;;;0.13;95.44
32638;BME280;19045;52.268;10.506;2023-01-29T10:32:16;101590.38;;;0.25;95.11
32638;BME280;19045;52.268;10.506;2023-01-29T10:34:47;101587.88;;;0.24;95.39
32638;BME280;19045;52.268;10.506;2023-01-29T10:37:17;101585.75;;;0.35;94.73
32638;BME280;19045;52.268;10.506;2023-01-29T10:39:45;101574.53;;;0.41;94.35
32638;BME280;19045;52.268;10.506;2023-01-29T10:42:17;101584.13;;;0.42;94.45
32638;BME280;19045;52.268;10.506;2023-01-29T10:44:55;101576.53;;;0.39;94.49
32638;BME280;19045;52.268;10.506;2023-01-29T10:50:42;101577.63;;;0.21;95.47
32638;BME280;19045;52.268;10.506;2023-01-29T10:53:32;101580.94;;;0.23;96.31
32638;BME280;19045;52.268;10.506;2023-01-29T10:56:12;101574.19;;;0.28;95.91
32638;BME280;19045;52.268;10.506;2023-01-29T10:58:47;101573.81;;;0.15;96.30
32638;BME280;19045;52.268;10.506;2023-01-29T11:01:14;101569.53;;;0.14;96.84
32638;BME280;19045;52.268;10.506;2023-01-29T11:03:41;101556.81;;;0.18;96.83
32638;BME280;19045;52.268;10.506;2023-01-29T11:06:12;101547.59;;;0.22;96.39
32638;BME280;19045;52.268;10.506;2023-01-29T11:08:51;101545.78;;;0.22;96.52
32638;BME280;19045;52.268;10.506;2023-01-29T11:11:20;101534.88;;;0.33;96.28
32638;BME280;19045;52.268;10.506;2023-01-29T11:13:53;101530.59;;;0.40;95.54
32638;BME280;19045;52.268;10.506;2023-01-29T11:16:22;101538.53;;;0.48;95.19
32638;BME280;19045;52.268;10.506;2023-01-29T11:18:51;101528.47;;;0.52;94.76
32638;BME280;19045;52.268;10.506;2023-01-29T11:21:19;101516.22;;;0.51;94.83
32638;BME280;19045;52.268;10.506;2023-01-29T11:23:48;101511.13;;;0.41;95.04
32638;BME280;19045;52.268;10.506;2023-01-29T11:26:20;101513.41;;;0.44;94.71
32638;BME280;19045;52.268;10.506;2023-01-29T11:28:50;101507.50;;;0.59;94.56
32638;BME280;19045;52.268;10.506;2023-01-29T11:31:20;101504.50;;;0.62;93.93
32638;BME280;19045;52.268;10.506;2023-01-29T11:33:48;101504.50;;;0.62;94.07
32638;BME280;19045;52.268;10.506;2023-01-29T11:36:40;101505.31;;;0.78;93.46
32638;BME280;19045;52.268;10.506;2023-01-29T11:39:18;101494.25;;;0.75;93.19
32638;BME280;19045;52.268;10.506;2023-01-29T11:41:53;101494.25;;;0.75;93.23
32638;BME280;19045;52.268;10.506;2023-01-29T11:44:26;101493.25;;;0.68;93.05
32638;BME280;19045;52.268;10.506;2023-01-29T11:46:53;101482.34;;;0.71;93.49
32638;BME280;19045;52.268;10.506;2023-01-29T11:49:28;101484.16;;;0.70;93.45
32638;BME280;19045;52.268;10.506;2023-01-29T11:51:57;101480.22;;;0.82;93.29
32638;BME280;19045;52.268;10.506;2023-01-29T11:54:31;101465.13;;;0.91;92.52
32638;BME280;19045;52.268;10.506;2023-01-29T11:57:00;101471.25;;;0.91;92.09
32638;BME280;19045;52.268;10.506;2023-01-29T11:59:37;101458.53;;;0.87;92.70
32638;BME280;19045;52.268;10.506;2023-01-29T12:02:18;101450.25;;;0.90;93.09
32638;BME280;19045;52.268;10.506;2023-01-29T12:04:46;101462.34;;;0.92;92.86
32638;BME280;19045;52.268;10.506;2023-01-29T12:07:15;101458.63;;;1.10;92.75
32638;BME280;19045;52.268;10.506;2023-01-29T12:09:51;101453.03;;;1.04;91.99
32638;BME280;19045;52.268;10.506;2023-01-29T12:12:30;101455.13;;;1.17;92.62
32638;BME280;19045;52.268;10.506;2023-01-29T12:15:18;101451.31;;;1.28;91.46
32638;BME280;19045;52.268;10.506;2023-01-29T12:17:52;101450.13;;;1.30;91.19
32638;BME280;19045;52.268;10.506;2023-01-29T12:20:27;101452.63;;;1.32;91.36
32638;BME280;19045;52.268;10.506;2023-01-29T12:23:02;101448.88;;;1.10;91.64
32638;BME280;19045;52.268;10.506;2023-01-29T12:25:40;101442.75;;;1.10;91.67
32638;BME280;19045;52.268;10.506;2023-01-29T12:28:18;101427.75;;;1.02;92.18
32638;BME280;19045;52.268;10.506;2023-01-29T12:30:54;101426.94;;;1.01;92.17
32638;BME280;19045;52.268;10.506;2023-01-29T12:33:37;101426.09;;;1.01;92.12
32638;BME280;19045;52.268;10.506;2023-01-29T12:36:12;101420.44;;;1.12;92.08
32638;BME280;19045;52.268;10.506;2023-01-29T12:38:39;101425.53;;;1.22;91.32
32638;BME280;19045;52.268;10.506;2023-01-29T12:41:28;101419.88;;;1.25;91.03
32638;BME280;19045;52.268;10.506;2023-01-29T12:43:59;101421.41;;;1.19;91.11
32638;BME280;19045;52.268;10.506;2023-01-29T12:46:28;101424.84;;;1.28;91.32
32638;BME280;19045;52.268;10.506;2023-01-29T12:49:00;101421.38;;;1.27;90.99
32638;BME280;19045;52.268;10.506;2023-01-29T12:51:32;101425.19;;;1.25;91.19
32638;BME280;19045;52.268;10.506;2023-01-29T12:54:03;101421.38;;;1.27;91.11
32638;BME280;19045;52.268;10.506;2023-01-29T12:56:34;101414.72;;;1.31;90.86
32638;BME280;19045;52.268;10.506;2023-01-29T12:59:11;101412.59;;;1.27;90.80
32638;BME280;19045;52.268;10.506;2023-01-29T13:01:45;101418.59;;;1.21;91.44
32638;BME280;19045;52.268;10.506;2023-01-29T13:04:18;101415.44;;;1.25;91.68
32638;BME280;19045;52.268;10.506;2023-01-29T13:06:54;101407.50;;;1.25;91.71